Terminal Aerodrome Forecast
Issued by NWS

Home | Current Version | Previous Version | Graphics & Text | Print | Product List | Glossary On
Versions: 1 2 3 4 5 6 7 8 9 10 11 12 13 14 15 16 17 18
000
FTUS42 KMHX 291003 AAA
TAFPGV
TAF AMD
KPGV 291003Z 2910/3006 VRB03KT P6SM SCT005 BKN010
     FM291100 VRB03KT 5SM BR BKN005
     FM291400 04008KT P6SM BKN040
      AMD LTD TO CLD VIS AND WIND=

USA.gov is the U.S. government's official web portal to all federal, state and local government web resources and services.